sensor_id;sensor_type;location;lat;lon;timestamp;P1;durP1;ratioP1;P2;durP2;ratioP2
12474;SDS011;6302;42.624;23.334;2022-10-14T00:01:06;2.67;;;2.47;;
12474;SDS011;6302;42.624;23.334;2022-10-14T00:03:34;4.17;;;2.80;;
12474;SDS011;6302;42.624;23.334;2022-10-14T00:06:02;3.60;;;3.23;;
12474;SDS011;6302;42.624;23.334;2022-10-14T00:08:30;3.10;;;2.80;;
12474;SDS011;6302;42.624;23.334;2022-10-14T00:11:02;3.77;;;3.37;;
12474;SDS011;6302;42.624;23.334;2022-10-14T00:13:31;8.00;;;3.63;;
12474;SDS011;6302;42.624;23.334;2022-10-14T00:15:58;3.90;;;3.47;;
12474;SDS011;6302;42.624;23.334;2022-10-14T00:18:25;3.60;;;3.30;;
12474;SDS011;6302;42.624;23.334;2022-10-14T00:20:52;4.50;;;3.83;;
12474;SDS011;6302;42.624;23.334;2022-10-14T00:23:19;7.23;;;3.70;;
12474;SDS011;6302;42.624;23.334;2022-10-14T00:25:46;4.97;;;3.13;;
12474;SDS011;6302;42.624;23.334;2022-10-14T00:28:13;6.77;;;3.47;;
12474;SDS011;6302;42.624;23.334;2022-10-14T00:30:41;3.47;;;3.17;;
12474;SDS011;6302;42.624;23.334;2022-10-14T00:33:08;4.77;;;3.43;;
12474;SDS011;6302;42.624;23.334;2022-10-14T00:35:35;4.00;;;3.33;;
12474;SDS011;6302;42.624;23.334;2022-10-14T00:38:02;6.60;;;3.60;;
12474;SDS011;6302;42.624;23.334;2022-10-14T00:40:29;3.57;;;3.27;;
12474;SDS011;6302;42.624;23.334;2022-10-14T00:42:55;5.43;;;3.63;;
12474;SDS011;6302;42.624;23.334;2022-10-14T00:45:22;3.67;;;3.37;;
12474;SDS011;6302;42.624;23.334;2022-10-14T00:47:51;3.73;;;3.40;;
12474;SDS011;6302;42.624;23.334;2022-10-14T00:50:18;4.80;;;3.33;;
12474;SDS011;6302;42.624;23.334;2022-10-14T00:52:46;3.60;;;3.30;;
12474;SDS011;6302;42.624;23.334;2022-10-14T00:55:14;4.97;;;4.27;;
12474;SDS011;6302;42.624;23.334;2022-10-14T00:57:42;3.77;;;3.43;;
12474;SDS011;6302;42.624;23.334;2022-10-14T01:00:11;2.97;;;2.77;;
12474;SDS011;6302;42.624;23.334;2022-10-14T01:02:41;6.30;;;3.23;;
12474;SDS011;6302;42.624;23.334;2022-10-14T01:05:10;4.90;;;2.77;;
12474;SDS011;6302;42.624;23.334;2022-10-14T01:07:41;3.47;;;2.67;;
12474;SDS011;6302;42.624;23.334;2022-10-14T01:10:15;6.30;;;2.80;;
12474;SDS011;6302;42.624;23.334;2022-10-14T01:13:00;4.43;;;2.80;;
12474;SDS011;6302;42.624;23.334;2022-10-14T01:15:35;3.90;;;2.73;;
12474;SDS011;6302;42.624;23.334;2022-10-14T01:18:09;3.23;;;2.37;;
12474;SDS011;6302;42.624;23.334;2022-10-14T01:20:55;2.97;;;2.47;;
12474;SDS011;6302;42.624;23.334;2022-10-14T01:23:33;5.27;;;2.87;;
12474;SDS011;6302;42.624;23.334;2022-10-14T01:26:13;4.27;;;2.90;;
12474;SDS011;6302;42.624;23.334;2022-10-14T01:28:53;3.27;;;2.97;;
12474;SDS011;6302;42.624;23.334;2022-10-14T01:31:32;2.60;;;2.40;;
12474;SDS011;6302;42.624;23.334;2022-10-14T01:34:05;3.23;;;2.90;;
12474;SDS011;6302;42.624;23.334;2022-10-14T01:36:36;2.93;;;2.57;;
12474;SDS011;6302;42.624;23.334;2022-10-14T01:39:09;3.67;;;2.40;;
12474;SDS011;6302;42.624;23.334;2022-10-14T01:41:42;4.80;;;2.83;;
12474;SDS011;6302;42.624;23.334;2022-10-14T01:44:12;4.00;;;2.40;;
12474;SDS011;6302;42.624;23.334;2022-10-14T01:46:44;3.07;;;2.50;;
12474;SDS011;6302;42.624;23.334;2022-10-14T01:49:30;2.50;;;2.30;;
12474;SDS011;6302;42.624;23.334;2022-10-14T01:52:09;2.50;;;1.90;;
12474;SDS011;6302;42.624;23.334;2022-10-14T01:54:40;2.87;;;2.00;;
12474;SDS011;6302;42.624;23.334;2022-10-14T01:57:12;3.67;;;2.13;;
12474;SDS011;6302;42.624;23.334;2022-10-14T01:59:42;3.23;;;2.27;;
12474;SDS011;6302;42.624;23.334;2022-10-14T02:02:12;3.83;;;2.37;;
12474;SDS011;6302;42.624;23.334;2022-10-14T02:04:39;1.90;;;1.80;;
12474;SDS011;6302;42.624;23.334;2022-10-14T02:07:06;2.27;;;1.97;;
12474;SDS011;6302;42.624;23.334;2022-10-14T02:09:41;1.87;;;1.77;;
12474;SDS011;6302;42.624;23.334;2022-10-14T02:12:23;2.30;;;2.10;;
12474;SDS011;6302;42.624;23.334;2022-10-14T02:14:59;3.67;;;1.77;;
12474;SDS011;6302;42.624;23.334;2022-10-14T02:17:36;2.43;;;2.20;;
12474;SDS011;6302;42.624;23.334;2022-10-14T02:20:15;2.73;;;2.03;;
12474;SDS011;6302;42.624;23.334;2022-10-14T02:22:47;3.47;;;2.00;;
12474;SDS011;6302;42.624;23.334;2022-10-14T02:25:21;4.67;;;2.80;;
12474;SDS011;6302;42.624;23.334;2022-10-14T02:27:50;3.50;;;2.20;;
12474;SDS011;6302;42.624;23.334;2022-10-14T02:30:19;2.33;;;2.13;;
12474;SDS011;6302;42.624;23.334;2022-10-14T02:32:48;4.63;;;2.67;;
12474;SDS011;6302;42.624;23.334;2022-10-14T02:35:16;3.73;;;2.60;;
12474;SDS011;6302;42.624;23.334;2022-10-14T02:37:46;2.50;;;2.30;;
12474;SDS011;6302;42.624;23.334;2022-10-14T02:40:17;2.60;;;2.40;;
12474;SDS011;6302;42.624;23.334;2022-10-14T02:42:47;2.50;;;2.30;;
12474;SDS011;6302;42.624;23.334;2022-10-14T02:45:14;5.70;;;2.50;;
12474;SDS011;6302;42.624;23.334;2022-10-14T02:47:41;3.17;;;2.47;;
12474;SDS011;6302;42.624;23.334;2022-10-14T02:50:10;2.60;;;2.40;;
12474;SDS011;6302;42.624;23.334;2022-10-14T02:52:37;3.03;;;2.70;;
12474;SDS011;6302;42.624;23.334;2022-10-14T02:55:04;2.83;;;2.63;;
12474;SDS011;6302;42.624;23.334;2022-10-14T02:57:31;3.10;;;2.80;;
12474;SDS011;6302;42.624;23.334;2022-10-14T02:59:58;2.97;;;2.77;;
12474;SDS011;6302;42.624;23.334;2022-10-14T03:02:25;3.13;;;2.83;;
12474;SDS011;6302;42.624;23.334;2022-10-14T03:04:51;4.87;;;3.40;;
12474;SDS011;6302;42.624;23.334;2022-10-14T03:07:20;4.17;;;3.40;;
12474;SDS011;6302;42.624;23.334;2022-10-14T03:09:47;3.60;;;3.30;;
12474;SDS011;6302;42.624;23.334;2022-10-14T03:12:14;3.73;;;3.53;;
12474;SDS011;6302;42.624;23.334;2022-10-14T03:14:41;3.97;;;3.53;;
12474;SDS011;6302;42.624;23.334;2022-10-14T03:17:08;3.60;;;3.40;;
12474;SDS011;6302;42.624;23.334;2022-10-14T03:19:35;3.67;;;3.47;;
12474;SDS011;6302;42.624;23.334;2022-10-14T03:22:02;3.90;;;3.60;;
12474;SDS011;6302;42.624;23.334;2022-10-14T03:24:30;4.20;;;3.87;;
12474;SDS011;6302;42.624;23.334;2022-10-14T03:26:57;4.67;;;3.50;;
12474;SDS011;6302;42.624;23.334;2022-10-14T03:29:24;3.87;;;3.57;;
12474;SDS011;6302;42.624;23.334;2022-10-14T03:31:51;4.00;;;3.60;;
12474;SDS011;6302;42.624;23.334;2022-10-14T03:34:17;4.10;;;3.70;;
12474;SDS011;6302;42.624;23.334;2022-10-14T03:36:44;3.77;;;3.57;;
12474;SDS011;6302;42.624;23.334;2022-10-14T03:39:11;3.97;;;3.67;;
12474;SDS011;6302;42.624;23.334;2022-10-14T03:41:39;4.20;;;3.90;;
12474;SDS011;6302;42.624;23.334;2022-10-14T03:44:06;4.10;;;3.83;;
12474;SDS011;6302;42.624;23.334;2022-10-14T03:46:33;4.40;;;4.10;;
12474;SDS011;6302;42.624;23.334;2022-10-14T03:48:59;4.53;;;4.13;;
12474;SDS011;6302;42.624;23.334;2022-10-14T03:51:26;3.93;;;3.63;;
12474;SDS011;6302;42.624;23.334;2022-10-14T03:53:53;4.67;;;3.40;;
12474;SDS011;6302;42.624;23.334;2022-10-14T03:56:20;3.53;;;3.23;;
12474;SDS011;6302;42.624;23.334;2022-10-14T03:58:49;3.23;;;3.03;;
12474;SDS011;6302;42.624;23.334;2022-10-14T04:01:16;3.33;;;3.13;;
12474;SDS011;6302;42.624;23.334;2022-10-14T04:03:43;3.53;;;3.27;;
12474;SDS011;6302;42.624;23.334;2022-10-14T04:06:10;3.60;;;3.40;;
12474;SDS011;6302;42.624;23.334;2022-10-14T04:08:38;3.60;;;3.30;;
12474;SDS011;6302;42.624;23.334;2022-10-14T04:11:05;4.00;;;3.27;;
12474;SDS011;6302;42.624;23.334;2022-10-14T04:13:32;4.10;;;3.80;;
12474;SDS011;6302;42.624;23.334;2022-10-14T04:16:02;4.20;;;3.90;;
12474;SDS011;6302;42.624;23.334;2022-10-14T04:18:29;4.40;;;4.07;;
12474;SDS011;6302;42.624;23.334;2022-10-14T04:20:58;4.80;;;4.40;;
12474;SDS011;6302;42.624;23.334;2022-10-14T04:23:25;4.53;;;4.23;;
12474;SDS011;6302;42.624;23.334;2022-10-14T04:25:52;5.50;;;5.10;;
12474;SDS011;6302;42.624;23.334;2022-10-14T04:28:19;5.17;;;4.73;;
12474;SDS011;6302;42.624;23.334;2022-10-14T04:30:46;5.10;;;4.70;;
12474;SDS011;6302;42.624;23.334;2022-10-14T04:33:14;5.17;;;4.77;;
12474;SDS011;6302;42.624;23.334;2022-10-14T04:35:42;5.20;;;4.80;;
12474;SDS011;6302;42.624;23.334;2022-10-14T04:38:09;5.37;;;4.97;;
12474;SDS011;6302;42.624;23.334;2022-10-14T04:40:35;4.87;;;4.50;;
12474;SDS011;6302;42.624;23.334;2022-10-14T04:43:03;5.63;;;4.90;;
12474;SDS011;6302;42.624;23.334;2022-10-14T04:45:30;5.33;;;4.93;;
12474;SDS011;6302;42.624;23.334;2022-10-14T04:47:57;7.20;;;5.40;;
12474;SDS011;6302;42.624;23.334;2022-10-14T04:50:25;5.67;;;5.20;;
12474;SDS011;6302;42.624;23.334;2022-10-14T04:52:52;5.53;;;5.13;;
12474;SDS011;6302;42.624;23.334;2022-10-14T04:55:19;5.70;;;5.20;;
12474;SDS011;6302;42.624;23.334;2022-10-14T04:57:47;5.57;;;5.17;;
12474;SDS011;6302;42.624;23.334;2022-10-14T05:00:14;5.33;;;4.83;;
12474;SDS011;6302;42.624;23.334;2022-10-14T05:02:41;6.03;;;5.13;;
12474;SDS011;6302;42.624;23.334;2022-10-14T05:05:08;5.43;;;4.93;;
12474;SDS011;6302;42.624;23.334;2022-10-14T05:07:36;5.40;;;5.00;;
12474;SDS011;6302;42.624;23.334;2022-10-14T05:10:03;5.80;;;5.40;;
12474;SDS011;6302;42.624;23.334;2022-10-14T05:12:31;5.93;;;5.43;;
12474;SDS011;6302;42.624;23.334;2022-10-14T05:14:58;6.10;;;4.60;;
12474;SDS011;6302;42.624;23.334;2022-10-14T05:17:25;6.13;;;5.20;;
12474;SDS011;6302;42.624;23.334;2022-10-14T05:19:52;5.50;;;5.10;;
12474;SDS011;6302;42.624;23.334;2022-10-14T05:22:19;5.47;;;5.07;;
12474;SDS011;6302;42.624;23.334;2022-10-14T05:24:47;6.10;;;5.50;;
12474;SDS011;6302;42.624;23.334;2022-10-14T05:27:14;5.23;;;4.83;;
12474;SDS011;6302;42.624;23.334;2022-10-14T05:29:41;5.20;;;4.70;;
12474;SDS011;6302;42.624;23.334;2022-10-14T05:32:07;7.83;;;4.87;;
12474;SDS011;6302;42.624;23.334;2022-10-14T05:34:34;6.10;;;5.00;;
12474;SDS011;6302;42.624;23.334;2022-10-14T05:37:01;5.30;;;4.90;;
12474;SDS011;6302;42.624;23.334;2022-10-14T05:39:28;4.93;;;4.53;;
12474;SDS011;6302;42.624;23.334;2022-10-14T05:41:57;4.30;;;3.90;;
12474;SDS011;6302;42.624;23.334;2022-10-14T05:44:23;4.00;;;3.70;;
12474;SDS011;6302;42.624;23.334;2022-10-14T05:46:50;2.93;;;2.73;;
12474;SDS011;6302;42.624;23.334;2022-10-14T05:49:17;3.47;;;3.17;;
12474;SDS011;6302;42.624;23.334;2022-10-14T05:51:44;4.00;;;3.70;;
12474;SDS011;6302;42.624;23.334;2022-10-14T05:54:11;3.93;;;3.23;;
12474;SDS011;6302;42.624;23.334;2022-10-14T05:56:38;3.47;;;3.13;;
12474;SDS011;6302;42.624;23.334;2022-10-14T05:59:07;4.50;;;4.10;;
12474;SDS011;6302;42.624;23.334;2022-10-14T06:01:35;4.23;;;3.83;;
12474;SDS011;6302;42.624;23.334;2022-10-14T06:04:03;5.30;;;4.67;;
12474;SDS011;6302;42.624;23.334;2022-10-14T06:06:31;4.57;;;4.17;;
12474;SDS011;6302;42.624;23.334;2022-10-14T06:08:58;4.67;;;4.27;;
12474;SDS011;6302;42.624;23.334;2022-10-14T06:11:26;5.00;;;4.50;;
12474;SDS011;6302;42.624;23.334;2022-10-14T06:13:54;4.77;;;4.30;;
12474;SDS011;6302;42.624;23.334;2022-10-14T06:16:23;6.23;;;4.83;;
12474;SDS011;6302;42.624;23.334;2022-10-14T06:18:51;4.83;;;4.20;;
12474;SDS011;6302;42.624;23.334;2022-10-14T06:21:20;5.13;;;4.30;;
12474;SDS011;6302;42.624;23.334;2022-10-14T06:23:48;5.70;;;5.20;;
12474;SDS011;6302;42.624;23.334;2022-10-14T06:26:16;5.90;;;5.30;;
12474;SDS011;6302;42.624;23.334;2022-10-14T06:28:44;6.00;;;4.37;;
12474;SDS011;6302;42.624;23.334;2022-10-14T06:31:12;5.63;;;5.13;;
12474;SDS011;6302;42.624;23.334;2022-10-14T06:33:41;6.53;;;4.87;;
12474;SDS011;6302;42.624;23.334;2022-10-14T06:36:09;6.47;;;4.80;;
12474;SDS011;6302;42.624;23.334;2022-10-14T06:38:37;4.60;;;4.20;;
12474;SDS011;6302;42.624;23.334;2022-10-14T06:41:05;6.60;;;4.80;;
12474;SDS011;6302;42.624;23.334;2022-10-14T06:43:33;5.40;;;4.87;;
12474;SDS011;6302;42.624;23.334;2022-10-14T06:46:02;5.40;;;4.90;;
12474;SDS011;6302;42.624;23.334;2022-10-14T06:48:33;5.53;;;5.03;;
12474;SDS011;6302;42.624;23.334;2022-10-14T06:51:02;5.70;;;5.20;;
12474;SDS011;6302;42.624;23.334;2022-10-14T06:53:30;5.47;;;4.70;;
12474;SDS011;6302;42.624;23.334;2022-10-14T06:55:59;5.93;;;4.80;;
12474;SDS011;6302;42.624;23.334;2022-10-14T06:58:28;4.90;;;4.50;;
12474;SDS011;6302;42.624;23.334;2022-10-14T07:01:01;5.37;;;4.90;;
12474;SDS011;6302;42.624;23.334;2022-10-14T07:03:32;5.00;;;4.50;;
12474;SDS011;6302;42.624;23.334;2022-10-14T07:06:06;5.60;;;5.10;;
12474;SDS011;6302;42.624;23.334;2022-10-14T07:08:35;8.00;;;5.47;;
12474;SDS011;6302;42.624;23.334;2022-10-14T07:11:03;5.67;;;5.17;;
12474;SDS011;6302;42.624;23.334;2022-10-14T07:13:32;5.73;;;5.13;;
12474;SDS011;6302;42.624;23.334;2022-10-14T07:16:02;5.80;;;5.07;;
12474;SDS011;6302;42.624;23.334;2022-10-14T07:18:30;10.90;;;7.03;;
12474;SDS011;6302;42.624;23.334;2022-10-14T07:21:00;6.37;;;5.77;;
12474;SDS011;6302;42.624;23.334;2022-10-14T07:23:31;6.53;;;5.57;;
12474;SDS011;6302;42.624;23.334;2022-10-14T07:25:59;5.30;;;4.80;;
12474;SDS011;6302;42.624;23.334;2022-10-14T07:28:28;6.23;;;5.47;;
12474;SDS011;6302;42.624;23.334;2022-10-14T07:30:59;6.03;;;5.43;;
12474;SDS011;6302;42.624;23.334;2022-10-14T07:33:28;6.73;;;6.13;;
12474;SDS011;6302;42.624;23.334;2022-10-14T07:35:59;5.70;;;5.10;;
12474;SDS011;6302;42.624;23.334;2022-10-14T07:38:28;5.43;;;4.93;;
12474;SDS011;6302;42.624;23.334;2022-10-14T07:41:00;5.67;;;4.60;;
12474;SDS011;6302;42.624;23.334;2022-10-14T07:43:29;5.77;;;4.63;;
12474;SDS011;6302;42.624;23.334;2022-10-14T07:45:59;5.63;;;5.13;;
12474;SDS011;6302;42.624;23.334;2022-10-14T07:48:30;5.20;;;4.70;;
12474;SDS011;6302;42.624;23.334;2022-10-14T07:50:59;5.17;;;4.70;;
12474;SDS011;6302;42.624;23.334;2022-10-14T07:53:30;5.20;;;4.63;;
12474;SDS011;6302;42.624;23.334;2022-10-14T07:56:00;5.20;;;4.70;;
12474;SDS011;6302;42.624;23.334;2022-10-14T07:58:29;4.83;;;4.40;;
12474;SDS011;6302;42.624;23.334;2022-10-14T08:00:57;5.23;;;4.70;;
12474;SDS011;6302;42.624;23.334;2022-10-14T08:03:26;4.77;;;4.37;;
12474;SDS011;6302;42.624;23.334;2022-10-14T08:05:58;5.33;;;4.70;;
12474;SDS011;6302;42.624;23.334;2022-10-14T08:08:28;4.67;;;4.27;;
12474;SDS011;6302;42.624;23.334;2022-10-14T08:11:01;4.60;;;4.20;;
12474;SDS011;6302;42.624;23.334;2022-10-14T08:13:31;4.83;;;4.33;;
12474;SDS011;6302;42.624;23.334;2022-10-14T08:16:00;4.63;;;4.17;;
12474;SDS011;6302;42.624;23.334;2022-10-14T08:18:28;4.67;;;4.27;;
12474;SDS011;6302;42.624;23.334;2022-10-14T08:20:57;4.80;;;4.30;;
12474;SDS011;6302;42.624;23.334;2022-10-14T08:23:29;6.00;;;4.13;;
12474;SDS011;6302;42.624;23.334;2022-10-14T08:25:57;4.07;;;3.77;;
12474;SDS011;6302;42.624;23.334;2022-10-14T08:28:29;4.50;;;4.10;;
12474;SDS011;6302;42.624;23.334;2022-10-14T08:30:59;4.50;;;4.10;;
12474;SDS011;6302;42.624;23.334;2022-10-14T08:33:28;6.23;;;4.10;;
12474;SDS011;6302;42.624;23.334;2022-10-14T08:35:59;4.53;;;4.13;;
12474;SDS011;6302;42.624;23.334;2022-10-14T08:38:29;5.80;;;3.50;;
12474;SDS011;6302;42.624;23.334;2022-10-14T08:41:02;3.70;;;3.17;;
12474;SDS011;6302;42.624;23.334;2022-10-14T08:43:46;4.07;;;3.73;;
12474;SDS011;6302;42.624;23.334;2022-10-14T08:46:19;3.47;;;3.20;;
12474;SDS011;6302;42.624;23.334;2022-10-14T08:48:52;7.10;;;3.40;;
12474;SDS011;6302;42.624;23.334;2022-10-14T08:51:29;3.87;;;3.57;;
12474;SDS011;6302;42.624;23.334;2022-10-14T08:53:59;3.67;;;2.90;;
12474;SDS011;6302;42.624;23.334;2022-10-14T08:56:34;3.33;;;3.03;;
12474;SDS011;6302;42.624;23.334;2022-10-14T08:59:06;3.20;;;3.00;;
12474;SDS011;6302;42.624;23.334;2022-10-14T09:01:42;2.80;;;2.60;;
12474;SDS011;6302;42.624;23.334;2022-10-14T09:04:15;3.23;;;2.70;;
12474;SDS011;6302;42.624;23.334;2022-10-14T09:06:45;3.10;;;2.83;;
12474;SDS011;6302;42.624;23.334;2022-10-14T09:09:17;4.10;;;2.93;;
12474;SDS011;6302;42.624;23.334;2022-10-14T09:11:49;2.67;;;2.47;;
12474;SDS011;6302;42.624;23.334;2022-10-14T09:14:26;2.70;;;2.50;;
12474;SDS011;6302;42.624;23.334;2022-10-14T09:17:01;2.97;;;2.77;;
12474;SDS011;6302;42.624;23.334;2022-10-14T09:19:33;2.60;;;2.40;;
12474;SDS011;6302;42.624;23.334;2022-10-14T09:22:10;3.00;;;2.47;;
12474;SDS011;6302;42.624;23.334;2022-10-14T09:24:40;2.40;;;2.30;;
12474;SDS011;6302;42.624;23.334;2022-10-14T09:27:16;2.70;;;2.50;;
12474;SDS011;6302;42.624;23.334;2022-10-14T09:29:48;4.23;;;3.83;;
12474;SDS011;6302;42.624;23.334;2022-10-14T09:32:25;3.40;;;3.07;;
12474;SDS011;6302;42.624;23.334;2022-10-14T09:35:00;3.57;;;3.27;;
12474;SDS011;6302;42.624;23.334;2022-10-14T09:37:30;3.27;;;2.97;;
12474;SDS011;6302;42.624;23.334;2022-10-14T09:40:05;2.87;;;2.57;;
12474;SDS011;6302;42.624;23.334;2022-10-14T09:42:50;2.43;;;2.23;;
12474;SDS011;6302;42.624;23.334;2022-10-14T09:45:25;4.80;;;3.00;;
12474;SDS011;6302;42.624;23.334;2022-10-14T09:47:55;3.00;;;2.80;;
12474;SDS011;6302;42.624;23.334;2022-10-14T09:50:29;3.40;;;2.80;;
12474;SDS011;6302;42.624;23.334;2022-10-14T09:53:05;3.57;;;2.93;;
12474;SDS011;6302;42.624;23.334;2022-10-14T09:55:45;3.13;;;2.73;;
12474;SDS011;6302;42.624;23.334;2022-10-14T09:58:20;3.67;;;3.37;;
12474;SDS011;6302;42.624;23.334;2022-10-14T10:01:06;3.37;;;2.80;;
12474;SDS011;6302;42.624;23.334;2022-10-14T10:03:41;3.13;;;2.83;;
12474;SDS011;6302;42.624;23.334;2022-10-14T10:06:11;3.50;;;2.43;;
12474;SDS011;6302;42.624;23.334;2022-10-14T10:08:41;2.93;;;2.70;;
12474;SDS011;6302;42.624;23.334;2022-10-14T10:11:26;2.87;;;2.67;;
12474;SDS011;6302;42.624;23.334;2022-10-14T10:19:44;5.87;;;2.63;;
12474;SDS011;6302;42.624;23.334;2022-10-14T10:22:27;2.60;;;2.40;;
12474;SDS011;6302;42.624;23.334;2022-10-14T10:27:56;2.60;;;2.40;;
12474;SDS011;6302;42.624;23.334;2022-10-14T10:30:27;2.77;;;2.57;;
12474;SDS011;6302;42.624;23.334;2022-10-14T10:33:20;2.13;;;2.00;;
12474;SDS011;6302;42.624;23.334;2022-10-14T10:35:58;2.70;;;2.50;;
12474;SDS011;6302;42.624;23.334;2022-10-14T10:38:38;2.40;;;2.20;;
12474;SDS011;6302;42.624;23.334;2022-10-14T10:41:14;2.97;;;2.63;;
12474;SDS011;6302;42.624;23.334;2022-10-14T10:44:10;2.30;;;2.10;;
12474;SDS011;6302;42.624;23.334;2022-10-14T10:47:08;2.57;;;2.37;;
12474;SDS011;6302;42.624;23.334;2022-10-14T10:49:58;2.10;;;2.00;;
12474;SDS011;6302;42.624;23.334;2022-10-14T10:52:34;2.37;;;2.17;;
12474;SDS011;6302;42.624;23.334;2022-10-14T10:55:16;2.20;;;2.00;;
12474;SDS011;6302;42.624;23.334;2022-10-14T10:57:55;2.47;;;2.07;;
12474;SDS011;6302;42.624;23.334;2022-10-14T11:00:29;1.90;;;1.80;;
12474;SDS011;6302;42.624;23.334;2022-10-14T11:03:07;1.77;;;1.67;;
12474;SDS011;6302;42.624;23.334;2022-10-14T11:05:49;2.33;;;1.60;;
12474;SDS011;6302;42.624;23.334;2022-10-14T11:11:32;4.10;;;1.70;;
12474;SDS011;6302;42.624;23.334;2022-10-14T11:14:25;1.70;;;1.60;;
12474;SDS011;6302;42.624;23.334;2022-10-14T11:17:13;2.10;;;1.80;;
12474;SDS011;6302;42.624;23.334;2022-10-14T11:19:51;1.63;;;1.53;;
12474;SDS011;6302;42.624;23.334;2022-10-14T11:22:30;2.30;;;1.70;;
12474;SDS011;6302;42.624;23.334;2022-10-14T11:25:13;2.63;;;2.43;;
12474;SDS011;6302;42.624;23.334;2022-10-14T11:27:53;1.77;;;1.50;;
12474;SDS011;6302;42.624;23.334;2022-10-14T11:30:31;1.97;;;1.53;;
12474;SDS011;6302;42.624;23.334;2022-10-14T11:33:14;2.07;;;1.87;;
12474;SDS011;6302;42.624;23.334;2022-10-14T11:35:54;1.77;;;1.67;;
12474;SDS011;6302;42.624;23.334;2022-10-14T11:38:37;1.40;;;1.30;;
12474;SDS011;6302;42.624;23.334;2022-10-14T11:41:16;1.73;;;1.23;;
12474;SDS011;6302;42.624;23.334;2022-10-14T11:43:53;1.20;;;1.10;;
12474;SDS011;6302;42.624;23.334;2022-10-14T11:46:31;1.30;;;1.20;;
12474;SDS011;6302;42.624;23.334;2022-10-14T11:49:02;3.37;;;1.50;;
12474;SDS011;6302;42.624;23.334;2022-10-14T11:51:36;1.40;;;1.30;;
12474;SDS011;6302;42.624;23.334;2022-10-14T11:54:08;1.63;;;1.53;;
12474;SDS011;6302;42.624;23.334;2022-10-14T11:56:43;1.40;;;1.30;;
12474;SDS011;6302;42.624;23.334;2022-10-14T11:59:29;1.53;;;1.43;;
12474;SDS011;6302;42.624;23.334;2022-10-14T12:02:10;1.50;;;1.40;;
12474;SDS011;6302;42.624;23.334;2022-10-14T12:04:45;2.33;;;1.97;;
12474;SDS011;6302;42.624;23.334;2022-10-14T12:07:19;1.60;;;1.50;;
12474;SDS011;6302;42.624;23.334;2022-10-14T12:09:54;1.23;;;1.13;;
12474;SDS011;6302;42.624;23.334;2022-10-14T12:12:25;2.07;;;1.30;;
12474;SDS011;6302;42.624;23.334;2022-10-14T12:14:55;1.27;;;1.20;;
12474;SDS011;6302;42.624;23.334;2022-10-14T12:17:26;1.27;;;1.20;;
12474;SDS011;6302;42.624;23.334;2022-10-14T12:19:57;1.50;;;1.40;;
12474;SDS011;6302;42.624;23.334;2022-10-14T12:22:28;1.40;;;1.20;;
12474;SDS011;6302;42.624;23.334;2022-10-14T12:25:00;1.40;;;1.30;;
12474;SDS011;6302;42.624;23.334;2022-10-14T12:27:31;3.47;;;1.40;;
12474;SDS011;6302;42.624;23.334;2022-10-14T12:29:58;1.00;;;1.00;;
12474;SDS011;6302;42.624;23.334;2022-10-14T12:32:27;1.53;;;1.00;;
12474;SDS011;6302;42.624;23.334;2022-10-14T12:34:55;2.30;;;1.10;;
12474;SDS011;6302;42.624;23.334;2022-10-14T12:40:27;1.40;;;1.30;;
12474;SDS011;6302;42.624;23.334;2022-10-14T12:42:59;1.30;;;1.20;;
12474;SDS011;6302;42.624;23.334;2022-10-14T12:45:29;0.90;;;0.90;;
12474;SDS011;6302;42.624;23.334;2022-10-14T12:48:11;1.23;;;1.03;;
12474;SDS011;6302;42.624;23.334;2022-10-14T12:50:41;1.20;;;1.10;;
12474;SDS011;6302;42.624;23.334;2022-10-14T12:53:15;0.97;;;0.97;;
12474;SDS011;6302;42.624;23.334;2022-10-14T12:55:51;1.53;;;1.20;;
12474;SDS011;6302;42.624;23.334;2022-10-14T12:58:29;1.30;;;1.20;;
12474;SDS011;6302;42.624;23.334;2022-10-14T13:00:59;1.10;;;1.00;;
12474;SDS011;6302;42.624;23.334;2022-10-14T13:03:31;1.60;;;1.50;;
12474;SDS011;6302;42.624;23.334;2022-10-14T13:06:24;1.20;;;1.10;;
12474;SDS011;6302;42.624;23.334;2022-10-14T13:15:01;2.67;;;1.37;;
12474;SDS011;6302;42.624;23.334;2022-10-14T13:17:48;1.67;;;1.30;;
12474;SDS011;6302;42.624;23.334;2022-10-14T13:23:20;1.40;;;1.30;;
12474;SDS011;6302;42.624;23.334;2022-10-14T13:25:56;1.07;;;1.07;;
12474;SDS011;6302;42.624;23.334;2022-10-14T13:28:37;1.80;;;1.10;;
12474;SDS011;6302;42.624;23.334;2022-10-14T13:31:14;3.70;;;2.00;;
12474;SDS011;6302;42.624;23.334;2022-10-14T13:33:47;1.63;;;1.40;;
12474;SDS011;6302;42.624;23.334;2022-10-14T13:36:20;1.87;;;1.40;;
12474;SDS011;6302;42.624;23.334;2022-10-14T13:38:54;2.13;;;1.20;;
12474;SDS011;6302;42.624;23.334;2022-10-14T13:41:23;1.87;;;1.40;;
12474;SDS011;6302;42.624;23.334;2022-10-14T13:43:52;1.30;;;1.20;;
12474;SDS011;6302;42.624;23.334;2022-10-14T13:46:23;0.93;;;0.93;;
12474;SDS011;6302;42.624;23.334;2022-10-14T13:48:54;1.50;;;1.23;;
12474;SDS011;6302;42.624;23.334;2022-10-14T13:51:24;3.93;;;1.57;;
12474;SDS011;6302;42.624;23.334;2022-10-14T13:53:55;3.50;;;1.33;;
12474;SDS011;6302;42.624;23.334;2022-10-14T13:56:25;1.37;;;1.27;;
12474;SDS011;6302;42.624;23.334;2022-10-14T13:58:53;0.83;;;0.83;;
12474;SDS011;6302;42.624;23.334;2022-10-14T14:01:20;1.70;;;1.30;;
12474;SDS011;6302;42.624;23.334;2022-10-14T14:03:57;2.00;;;1.40;;
12474;SDS011;6302;42.624;23.334;2022-10-14T14:06:25;2.93;;;2.33;;
12474;SDS011;6302;42.624;23.334;2022-10-14T14:08:54;3.33;;;2.50;;
12474;SDS011;6302;42.624;23.334;2022-10-14T14:11:24;5.77;;;1.30;;
12474;SDS011;6302;42.624;23.334;2022-10-14T14:13:55;1.83;;;1.53;;
12474;SDS011;6302;42.624;23.334;2022-10-14T14:16:27;2.23;;;1.73;;
12474;SDS011;6302;42.624;23.334;2022-10-14T14:18:59;2.03;;;1.67;;
12474;SDS011;6302;42.624;23.334;2022-10-14T14:21:26;3.53;;;2.43;;
12474;SDS011;6302;42.624;23.334;2022-10-14T14:23:54;2.77;;;2.00;;
12474;SDS011;6302;42.624;23.334;2022-10-14T14:26:25;2.53;;;1.90;;
12474;SDS011;6302;42.624;23.334;2022-10-14T14:28:54;1.40;;;1.30;;
12474;SDS011;6302;42.624;23.334;2022-10-14T14:31:22;1.77;;;1.67;;
12474;SDS011;6302;42.624;23.334;2022-10-14T14:33:55;1.90;;;1.80;;
12474;SDS011;6302;42.624;23.334;2022-10-14T14:36:24;2.63;;;1.80;;
12474;SDS011;6302;42.624;23.334;2022-10-14T14:38:55;2.00;;;1.73;;
12474;SDS011;6302;42.624;23.334;2022-10-14T14:41:23;4.37;;;1.90;;
12474;SDS011;6302;42.624;23.334;2022-10-14T14:43:52;2.27;;;2.00;;
12474;SDS011;6302;42.624;23.334;2022-10-14T14:46:23;4.17;;;2.10;;
12474;SDS011;6302;42.624;23.334;2022-10-14T14:48:55;2.23;;;2.00;;
12474;SDS011;6302;42.624;23.334;2022-10-14T14:51:23;1.93;;;1.80;;
12474;SDS011;6302;42.624;23.334;2022-10-14T14:53:54;3.33;;;2.03;;
12474;SDS011;6302;42.624;23.334;2022-10-14T14:56:22;2.07;;;1.83;;
12474;SDS011;6302;42.624;23.334;2022-10-14T14:58:52;1.83;;;1.73;;
12474;SDS011;6302;42.624;23.334;2022-10-14T15:01:22;2.13;;;1.90;;
12474;SDS011;6302;42.624;23.334;2022-10-14T15:03:56;1.80;;;1.70;;
12474;SDS011;6302;42.624;23.334;2022-10-14T15:06:24;2.20;;;1.80;;
12474;SDS011;6302;42.624;23.334;2022-10-14T15:08:52;2.90;;;2.60;;
12474;SDS011;6302;42.624;23.334;2022-10-14T15:11:21;3.93;;;2.63;;
12474;SDS011;6302;42.624;23.334;2022-10-14T15:13:50;3.80;;;2.63;;
12474;SDS011;6302;42.624;23.334;2022-10-14T15:16:31;3.93;;;2.90;;
12474;SDS011;6302;42.624;23.334;2022-10-14T15:22:19;3.50;;;2.60;;
12474;SDS011;6302;42.624;23.334;2022-10-14T15:25:08;3.27;;;2.87;;
12474;SDS011;6302;42.624;23.334;2022-10-14T15:27:45;9.07;;;4.67;;
12474;SDS011;6302;42.624;23.334;2022-10-14T15:33:16;5.17;;;4.23;;
12474;SDS011;6302;42.624;23.334;2022-10-14T15:35:52;4.63;;;3.73;;
12474;SDS011;6302;42.624;23.334;2022-10-14T15:38:21;4.23;;;3.73;;
12474;SDS011;6302;42.624;23.334;2022-10-14T15:40:48;5.53;;;4.17;;
12474;SDS011;6302;42.624;23.334;2022-10-14T15:43:16;5.70;;;4.70;;